Time;durP1;ratioP1;P1;durP2;ratioP2;P2;SDS_P1;SDS_P2;PMS_P1;PMS_P2;Temp;Humidity;BMP_temperature;BMP_pressure;BME280_temperature;BME280_humidity;BME280_pressure;Samples;Min_cycle;Max_cycle;Signal;HPM_P1;HPM_P2
2023/01/18 00:00:43;;;;;;;21.33;11.63;;;;;;;0.83;88.76;97161.81;5014671;28;20025;-79
2023/01/18 00:03:10;;;;;;;36.38;13.75;;;;;;;0.91;89.22;97154.59;5014413;28;20037;-79
2023/01/18 00:05:40;;;;;;;36.60;15.88;;;;;;;1.07;90.15;97157.25;5014568;28;20033;-79
2023/01/18 00:08:10;;;;;;;47.03;17.77;;;;;;;1.16;89.58;97154.22;5012985;28;20155;-79
2023/01/18 00:10:36;;;;;;;31.83;16.67;;;;;;;1.22;89.39;97147.97;5014532;28;20354;-79
2023/01/18 00:13:01;;;;;;;34.40;16.65;;;;;;;1.22;88.81;97128.31;5014342;28;20101;-79
2023/01/18 00:15:27;;;;;;;23.10;12.57;;;;;;;1.36;88.28;97137.06;5014722;28;20026;-79
2023/01/18 00:17:52;;;;;;;40.45;20.20;;;;;;;1.39;87.42;97130.03;5014158;28;20018;-79
2023/01/18 00:20:28;;;;;;;17.77;11.40;;;;;;;1.46;86.46;97123.66;5012958;28;20104;-78
2023/01/18 00:22:53;;;;;;;21.40;12.75;;;;;;;1.45;85.98;97106.63;5014258;28;20022;-79
2023/01/18 00:25:22;;;;;;;13.20;9.43;;;;;;;1.57;85.12;97101.78;5014368;28;20105;-79
2023/01/18 00:27:49;;;;;;;14.38;7.20;;;;;;;1.63;84.29;97093.78;5014248;28;20022;-79
2023/01/18 00:30:16;;;;;;;13.00;7.93;;;;;;;1.72;84.38;97103.56;5013846;28;20046;-79
2023/01/18 00:32:43;;;;;;;17.88;8.88;;;;;;;1.81;83.89;97102.25;5014020;28;20097;-79
2023/01/18 00:35:08;;;;;;;12.40;7.82;;;;;;;1.90;84.03;97101.78;5013769;28;20026;-79
2023/01/18 00:37:34;;;;;;;9.20;6.22;;;;;;;1.93;83.34;97106.75;5014174;28;20022;-79
2023/01/18 00:40:00;;;;;;;19.95;7.75;;;;;;;2.03;82.79;97113.06;5013933;28;20422;-79
2023/01/18 00:45:09;;;;;;;12.98;7.70;;;;;;;2.08;82.20;97100.81;5013634;28;20068;-79
2023/01/18 00:47:34;;;;;;;13.80;7.85;;;;;;;2.06;82.42;97094.91;5013687;28;20468;-79
2023/01/18 00:50:00;;;;;;;13.65;8.32;;;;;;;2.03;82.73;97087.41;5013739;28;20503;-79
2023/01/18 00:52:25;;;;;;;13.07;8.18;;;;;;;1.98;83.52;97092.78;5013877;28;20474;-79
2023/01/18 00:54:50;;;;;;;15.60;9.57;;;;;;;1.98;83.72;97095.34;5013607;28;20030;-79
2023/01/18 00:57:16;;;;;;;17.77;9.85;;;;;;;2.05;83.83;97105.28;5013376;28;20025;-79
2023/01/18 00:59:41;;;;;;;14.05;8.93;;;;;;;2.03;83.78;97101.97;5013686;28;20029;-79
2023/01/18 01:02:06;;;;;;;17.67;10.43;;;;;;;1.94;83.77;97088.72;5013267;28;20097;-79
2023/01/18 01:07:15;;;;;;;16.40;10.63;;;;;;;2.00;83.18;97101.22;5012165;28;20484;-79
2023/01/18 01:09:43;;;;;;;19.27;10.25;;;;;;;1.90;82.83;97082.09;5013379;28;20105;-79
2023/01/18 01:26:07;;;;;;;19.92;11.70;;;;;;;1.83;83.66;97061.94;5012831;28;20100;-78
2023/01/18 01:28:44;;;;;;;18.20;11.93;;;;;;;1.75;84.29;97055.47;5012893;28;20050;-79
2023/01/18 01:31:14;;;;;;;17.38;10.90;;;;;;;1.77;84.69;97070.81;5012801;28;20014;-79
2023/01/18 01:33:40;;;;;;;18.55;10.70;;;;;;;1.73;84.58;97064.19;5013003;28;20080;-79
2023/01/18 01:36:18;;;;;;;17.38;11.45;;;;;;;1.63;84.81;97074.06;5012834;28;20053;-79
2023/01/18 01:38:43;;;;;;;17.40;10.18;;;;;;;1.67;84.57;97072.19;5012818;28;20466;-79
2023/01/18 01:41:26;;;;;;;19.65;11.80;;;;;;;1.64;84.32;97069.75;5012610;28;20056;-79
2023/01/18 01:43:57;;;;;;;16.60;10.30;;;;;;;1.53;84.19;97054.94;5012736;28;20458;-79
2023/01/18 01:46:31;;;;;;;;;;;;;;;1.57;83.70;97069.28;5013646;28;20033;-79
2023/01/18 01:49:27;;;;;;;20.17;10.88;;;;;;;1.54;83.04;97066.03;5012602;28;19987;-79
2023/01/18 01:52:04;;;;;;;31.50;18.80;;;;;;;1.43;82.66;97053.75;4993625;28;20396;-79
2023/01/18 01:54:35;;;;;;;23.38;14.20;;;;;;;1.40;82.72;97057.31;5010186;28;20030;-79
2023/01/18 01:57:10;;;;;;;32.65;17.00;;;;;;;1.44;82.54;97065.69;5009841;28;20037;-79
2023/01/18 01:59:41;;;;;;;27.88;14.75;;;;;;;1.38;82.22;97050.59;5010184;28;20026;-79
2023/01/18 02:02:06;;;;;;;;;;;;;;;1.46;82.59;97069.81;5010254;28;20036;-79
2023/01/18 02:04:33;;;;;;;18.27;9.73;;;;;;;1.41;82.56;97068.41;5010035;28;19916;-79
2023/01/18 02:06:58;;;;;;;15.45;9.38;;;;;;;1.40;82.22;97061.63;5009824;28;20026;-79
2023/01/18 02:09:23;;;;;;;23.00;13.73;;;;;;;1.44;82.33;97063.13;5009950;28;20163;-79
2023/01/18 02:11:52;;;;;;;21.27;12.43;;;;;;;1.38;82.62;97053.97;5009926;28;20373;-79
2023/01/18 02:14:21;;;;;;;18.50;9.43;;;;;;;1.39;82.99;97052.25;5009688;28;20037;-79
2023/01/18 02:17:02;;;;;;;27.35;15.07;;;;;;;1.48;83.12;97059.50;5009876;28;20029;-79
2023/01/18 02:20:22;;;;;;;26.17;15.20;;;;;;;1.52;83.96;97055.88;5009634;28;20037;-79
2023/01/18 02:23:06;;;;;;;17.65;9.48;;;;;;;1.56;84.01;97061.63;4932307;29;20059;-79
2023/01/18 02:25:50;;;;;;;23.92;12.52;;;;;;;1.60;84.40;97058.00;4932276;29;20387;-79
2023/01/18 02:28:26;;;;;;;19.65;11.07;;;;;;;1.64;84.65;97064.63;4938553;29;20134;-79
2023/01/18 02:31:07;;;;;;;14.30;8.73;;;;;;;1.64;84.43;97047.50;4951435;29;20039;-79
2023/01/18 02:33:47;;;;;;;22.42;13.95;;;;;;;1.60;84.71;97038.34;4951319;29;20035;-79
2023/01/18 02:36:26;;;;;;;378.73;176.63;;;;;;;1.54;85.25;97033.50;4951058;29;20028;-79
2023/01/18 02:39:03;;;;;;;24.83;15.63;;;;;;;1.58;85.15;97036.75;4951236;29;20042;-79
2023/01/18 02:47:26;;;;;;;33.55;20.65;;;;;;;1.65;85.53;97059.44;4951523;29;20098;-79
2023/01/18 02:49:51;;;;;;;21.15;11.82;;;;;;;1.66;86.01;97061.09;4951248;29;20043;-79
2023/01/18 02:52:52;;;;;;;18.20;10.68;;;;;;;1.69;85.96;97070.38;4950973;29;20103;-79
2023/01/18 02:55:21;;;;;;;;;;;;;;;1.69;85.89;97068.63;4913274;29;20024;-79
2023/01/18 02:57:46;;;;;;;14.73;9.18;;;;;;;1.70;86.00;97056.63;4923267;29;20092;-79
2023/01/18 03:00:17;;;;;;;18.20;13.25;;;;;;;1.68;85.84;97058.44;4951106;29;20031;-79
2023/01/18 03:02:44;;;;;;;;;;;;;;;1.71;86.35;97071.09;4951397;29;20047;-79
2023/01/18 03:05:11;;;;;;;13.98;9.70;;;;;;;1.68;86.39;97061.00;4950821;29;20058;-79
2023/01/18 03:07:44;;;;;;;20.77;11.73;;;;;;;1.68;86.93;97068.69;4951094;29;20027;-79
2023/01/18 03:10:12;;;;;;;16.63;10.98;;;;;;;1.63;87.15;97063.81;4950741;29;20051;-79
2023/01/18 03:12:59;;;;;;;19.20;11.90;;;;;;;1.71;87.19;97077.06;4950964;29;20033;-79
2023/01/18 03:15:24;;;;;;;18.00;12.15;;;;;;;1.71;87.33;97076.25;4950823;29;20139;-79
2023/01/18 03:17:53;;;;;;;19.35;12.35;;;;;;;1.69;87.34;97076.34;4950985;29;20163;-79
2023/01/18 03:20:24;;;;;;;20.90;13.02;;;;;;;1.60;87.54;97055.44;4950768;29;20164;-79
2023/01/18 03:25:41;;;;;;;20.95;12.45;;;;;;;1.72;87.85;97078.72;4951224;29;20082;-79
2023/01/18 03:33:48;;;;;;;24.42;12.45;;;;;;;1.72;88.46;97076.16;5015289;28;20060;-79
2023/01/18 03:36:20;;;;;;;21.48;12.90;;;;;;;1.72;88.46;97078.72;5015184;28;20032;-79
2023/01/18 03:38:51;;;;;;;19.10;12.98;;;;;;;1.70;88.26;97070.28;5015305;28;20018;-79
2023/01/18 03:41:19;;;;;;;41.28;22.70;;;;;;;1.72;88.95;97073.59;5014918;28;20022;-79
2023/01/18 03:43:48;;;;;;;59.53;32.05;;;;;;;1.77;88.99;97080.22;5014998;28;20025;-79
2023/01/18 03:46:18;;;;;;;100.55;59.47;;;;;;;1.80;89.58;97085.19;5015062;28;20029;-79
2023/01/18 03:48:44;;;;;;;36.30;25.70;;;;;;;1.81;89.70;97069.72;5014910;28;20027;-79
2023/01/18 03:51:41;;;;;;;30.33;20.00;;;;;;;1.81;91.12;97069.72;5014685;28;20378;-79
2023/01/18 03:54:21;;;;;;;22.50;15.60;;;;;;;1.93;92.14;97069.06;5014778;28;20101;-79
2023/01/18 03:56:52;;;;;;;25.88;17.27;;;;;;;2.07;92.43;97078.63;5014716;28;20032;-79
2023/01/18 03:59:18;;;;;;;;;;;;;;;2.14;93.10;97084.22;5014985;28;20072;-79
2023/01/18 04:01:46;;;;;;;24.55;16.70;;;;;;;2.11;93.94;97061.31;5014644;28;19956;-78
2023/01/18 04:04:12;;;;;;;24.63;15.70;;;;;;;2.20;94.35;97063.38;5014564;28;20053;-79
2023/01/18 04:06:37;;;;;;;31.10;16.20;;;;;;;2.19;95.17;97057.41;5014637;28;20156;-79
2023/01/18 04:09:03;;;;;;;23.25;16.02;;;;;;;2.25;95.63;97045.97;5014578;28;20024;-79
2023/01/18 04:11:28;;;;;;;27.40;16.65;;;;;;;2.28;96.23;97058.66;5014503;28;20026;-79
2023/01/18 04:13:53;;;;;;;30.98;21.63;;;;;;;2.28;96.68;97053.53;5014426;28;20486;-79
2023/01/18 04:16:19;;;;;;;23.02;15.73;;;;;;;2.21;97.31;97045.31;5014310;28;20030;-79
2023/01/18 04:18:45;;;;;;;24.10;16.20;;;;;;;2.27;97.98;97041.56;5014557;28;20116;-79
2023/01/18 04:21:10;;;;;;;20.85;13.90;;;;;;;2.30;98.80;97046.53;5013972;28;20417;-79
2023/01/18 04:23:35;;;;;;;22.67;13.32;;;;;;;2.30;99.30;97043.16;5014409;28;20033;-79
2023/01/18 04:26:01;;;;;;;17.98;12.60;;;;;;;2.30;99.82;97043.16;5014279;28;20097;-79
2023/01/18 04:28:26;;;;;;;22.77;14.20;;;;;;;2.20;100.00;97015.41;5013772;28;20057;-79
2023/01/18 04:30:53;;;;;;;21.13;14.15;;;;;;;2.20;100.00;97023.13;5014403;28;20026;-78
2023/01/18 04:33:20;;;;;;;23.65;14.02;;;;;;;2.22;100.00;97023.03;5014053;28;20097;-79
2023/01/18 04:35:46;;;;;;;19.45;11.90;;;;;;;2.19;100.00;97010.34;5014052;28;20048;-79
2023/01/18 04:38:12;;;;;;;23.00;13.30;;;;;;;2.21;100.00;97017.06;5014101;28;20026;-79
2023/01/18 04:40:37;;;;;;;27.63;14.43;;;;;;;2.14;100.00;97015.72;5013634;28;20532;-79
2023/01/18 04:43:03;;;;;;;18.42;12.27;;;;;;;2.20;100.00;97037.69;5014159;28;20048;-79
2023/01/18 04:45:29;;;;;;;22.20;17.48;;;;;;;2.15;100.00;97042.22;5013806;28;20132;-79
2023/01/18 04:47:54;;;;;;;16.83;12.88;;;;;;;2.10;100.00;97042.47;5014013;28;20056;-79
2023/01/18 04:50:19;;;;;;;24.15;13.27;;;;;;;2.11;100.00;97064.72;5013763;28;20049;-79
2023/01/18 04:52:45;;;;;;;58.47;27.02;;;;;;;2.11;100.00;97076.72;5013770;28;20051;-79
2023/01/18 04:55:14;;;;;;;16.27;12.00;;;;;;;2.08;100.00;97075.13;5013513;28;20018;-79
2023/01/18 04:57:39;;;;;;;24.48;12.80;;;;;;;2.02;100.00;97065.19;5013671;28;20105;-79
2023/01/18 05:00:06;;;;;;;194.85;78.18;;;;;;;2.05;100.00;97067.59;5013692;28;20056;-79
2023/01/18 05:02:31;;;;;;;631.20;278.67;;;;;;;2.04;100.00;97072.81;5013549;28;20026;-79
2023/01/18 05:04:58;;;;;;;791.00;356.73;;;;;;;2.04;100.00;97076.22;5013792;28;20484;-79
2023/01/18 05:07:24;;;;;;;748.58;366.88;;;;;;;1.96;100.00;97080.91;5013304;28;20029;-79
2023/01/18 05:09:49;;;;;;;275.23;106.38;;;;;;;1.93;100.00;97079.34;5013562;28;20026;-79
2023/01/18 05:12:15;;;;;;;298.15;99.78;;;;;;;1.99;100.00;97085.91;5013294;28;20033;-79
2023/01/18 05:14:40;;;;;;;210.95;69.15;;;;;;;1.96;100.00;97081.75;5013749;28;20014;-79
2023/01/18 05:17:06;;;;;;;136.95;48.22;;;;;;;1.88;100.00;97071.06;5013528;28;20040;-79
2023/01/18 05:19:31;;;;;;;161.75;68.72;;;;;;;1.80;100.00;97052.66;5013252;28;20140;-79
2023/01/18 05:21:57;;;;;;;84.65;41.00;;;;;;;1.99;100.00;97097.00;5013421;28;20053;-79
2023/01/18 05:24:22;;;;;;;104.60;45.28;;;;;;;1.96;100.00;97083.47;5012988;28;20029;-79
2023/01/18 05:26:47;;;;;;;121.50;49.88;;;;;;;1.95;100.00;97085.22;5013113;28;20046;-79
2023/01/18 05:29:13;;;;;;;63.97;28.83;;;;;;;2.04;100.00;97088.22;5012935;28;20490;-79
2023/01/18 05:31:38;;;;;;;78.65;42.05;;;;;;;1.97;100.00;97072.31;5013267;28;20033;-79
2023/01/18 05:34:03;;;;;;;92.28;53.88;;;;;;;2.02;100.00;97077.19;5013349;28;20422;-79
2023/01/18 05:36:29;;;;;;;30.77;20.73;;;;;;;1.91;100.00;97054.66;5013127;28;20045;-79
2023/01/18 05:38:54;;;;;;;86.50;46.33;;;;;;;1.95;100.00;97061.31;5012951;28;20018;-79
2023/01/18 05:41:20;;;;;;;259.02;131.80;;;;;;;1.96;100.00;97063.78;5012707;28;20061;-79
2023/01/18 05:43:45;;;;;;;56.63;34.60;;;;;;;1.94;100.00;97067.34;5013349;28;20029;-79
2023/01/18 05:46:11;;;;;;;50.20;27.77;;;;;;;1.96;100.00;97079.19;5012931;28;20515;-79
2023/01/18 05:48:36;;;;;;;233.48;115.03;;;;;;;1.98;100.00;97068.81;5013205;28;20043;-79
2023/01/18 05:51:10;;;;;;;130.27;65.20;;;;;;;1.94;100.00;97052.78;5013023;28;20018;-79
2023/01/18 05:53:36;;;;;;;42.05;22.55;;;;;;;2.01;100.00;97066.09;5012294;28;20358;-78
2023/01/18 05:56:04;;;;;;;40.63;25.27;;;;;;;1.95;100.00;97051.84;5012822;28;20370;-78
2023/01/18 05:58:29;;;;;;;180.20;96.03;;;;;;;1.96;100.00;97050.94;5012863;28;20025;-78
2023/01/18 06:00:55;;;;;;;45.65;29.30;;;;;;;1.94;100.00;97052.78;5012860;28;20449;-78
2023/01/18 06:03:22;;;;;;;24.85;17.00;;;;;;;1.92;100.00;97057.16;5012601;28;20026;-78
2023/01/18 06:05:50;;;;;;;33.67;19.70;;;;;;;1.88;100.00;97057.41;5012743;28;20056;-78
2023/01/18 06:08:15;;;;;;;51.78;24.55;;;;;;;1.85;100.00;97060.13;5012354;28;20131;-78
2023/01/18 06:10:40;;;;;;;72.38;29.55;;;;;;;1.81;100.00;97061.19;5012829;28;20215;-78
2023/01/18 06:13:06;;;;;;;47.38;23.38;;;;;;;1.83;100.00;97067.91;5012732;28;20473;-78
2023/01/18 06:15:32;;;;;;;57.92;30.60;;;;;;;1.76;100.00;97064.00;5012372;28;20105;-78
2023/01/18 06:17:58;;;;;;;51.08;27.42;;;;;;;1.71;100.00;97064.25;5012407;28;20373;-78
2023/01/18 06:20:29;;;;;;;57.47;31.05;;;;;;;1.72;100.00;97065.06;5012223;28;20021;-78
2023/01/18 06:22:54;;;;;;;58.67;31.13;;;;;;;1.64;100.00;97065.47;5012732;28;20018;-78
2023/01/18 06:25:20;;;;;;;64.35;35.90;;;;;;;1.60;100.00;97058.00;5012247;28;20026;-78
2023/01/18 06:27:45;;;;;;;211.95;96.43;;;;;;;1.53;100.00;97061.81;5012368;28;20026;-79
2023/01/18 06:30:11;;;;;;;103.57;48.83;;;;;;;1.47;100.00;97068.91;5012376;28;20474;-78
2023/01/18 06:32:36;;;;;;;75.72;40.08;;;;;;;1.43;100.00;97072.56;5010628;28;20022;-78
2023/01/18 06:35:02;;;;;;;122.85;56.45;;;;;;;1.37;100.00;97070.28;5012602;28;20033;-78
2023/01/18 06:37:27;;;;;;;59.95;33.85;;;;;;;1.33;100.00;97070.53;5011814;28;20022;-79
2023/01/18 06:39:52;;;;;;;213.18;97.25;;;;;;;1.38;100.00;97089.88;5012288;28;20120;-78
2023/01/18 06:42:18;;;;;;;144.15;69.53;;;;;;;1.31;100.00;97073.19;5011897;28;20121;-78
2023/01/18 06:44:43;;;;;;;264.70;122.85;;;;;;;1.30;100.00;97065.53;5012124;28;20034;-79
2023/01/18 06:47:09;;;;;;;103.78;54.42;;;;;;;1.28;100.00;97070.75;5012063;28;20097;-79
2023/01/18 06:49:34;;;;;;;221.90;112.72;;;;;;;1.32;100.00;97068.88;5011745;28;20109;-79
2023/01/18 06:52:00;;;;;;;131.85;72.57;;;;;;;1.32;100.00;97076.56;5011961;28;20465;-78
2023/01/18 06:54:25;;;;;;;70.82;40.13;;;;;;;1.27;100.00;97065.72;5011993;28;20049;-79
2023/01/18 06:56:51;;;;;;;44.67;28.35;;;;;;;1.23;100.00;97065.03;5012046;28;20014;-78
2023/01/18 06:59:16;;;;;;;104.00;51.15;;;;;;;1.22;100.00;97065.91;5011846;28;20104;-78
2023/01/18 07:01:41;;;;;;;61.42;32.70;;;;;;;1.20;100.00;97063.44;5011863;28;20014;-79
2023/01/18 07:04:07;;;;;;;49.70;31.00;;;;;;;1.20;100.00;97072.88;5013038;28;20460;-78
2023/01/18 07:06:32;;;;;;;81.82;51.63;;;;;;;1.24;100.00;97070.06;5015511;28;20046;-78
2023/01/18 07:08:57;;;;;;;53.90;32.03;;;;;;;1.28;100.00;97075.88;5015842;28;20057;-78
2023/01/18 07:11:23;;;;;;;45.47;30.08;;;;;;;1.25;100.00;97065.78;5015840;28;20351;-78
2023/01/18 07:13:48;;;;;;;56.83;33.97;;;;;;;1.22;100.00;97069.34;5015962;28;20409;-78
2023/01/18 07:16:18;;;;;;;49.45;30.02;;;;;;;1.25;100.00;97073.47;5015812;28;20018;-78
2023/01/18 07:18:48;;;;;;;59.72;35.95;;;;;;;1.26;100.00;97080.25;5015669;28;20022;-78
2023/01/18 07:21:15;;;;;;;64.80;40.42;;;;;;;1.24;100.00;97082.06;5015357;28;20442;-78
2023/01/18 07:23:41;;;;;;;67.32;38.42;;;;;;;1.13;100.00;97063.81;5015496;28;20481;-79
2023/01/18 07:26:16;;;;;;;86.93;47.30;;;;;;;1.23;100.00;97077.84;5014209;28;20028;-78
2023/01/18 07:28:43;;;;;;;59.22;35.85;;;;;;;1.22;100.00;97081.31;5015505;28;20042;-78
2023/01/18 07:31:09;;;;;;;58.60;36.30;;;;;;;1.22;100.00;97081.31;5015765;28;20025;-78
2023/01/18 07:33:35;;;;;;;64.93;38.22;;;;;;;1.20;100.00;97073.69;5015055;28;20085;-79
2023/01/18 07:36:06;;;;;;;61.38;35.33;;;;;;;1.24;100.00;97082.06;5015514;28;20350;-78
2023/01/18 07:38:32;;;;;;;120.00;63.42;;;;;;;1.23;100.00;97090.69;5015230;28;20026;-78
2023/01/18 07:41:08;;;;;;;68.40;38.55;;;;;;;1.18;100.00;97084.94;5015358;28;20612;-78
2023/01/18 07:43:38;;;;;;;62.25;36.42;;;;;;;1.26;100.00;97087.94;5015030;28;20061;-78
2023/01/18 07:46:05;;;;;;;45.55;31.00;;;;;;;1.27;100.00;97089.63;5015077;28;20112;-78
2023/01/18 07:48:31;;;;;;;89.93;48.78;;;;;;;1.17;100.00;97081.53;5015107;28;20040;-78
2023/01/18 07:50:58;;;;;;;74.72;39.47;;;;;;;1.18;100.00;97083.22;5015198;28;20022;-78
2023/01/18 07:53:25;;;;;;;76.70;37.75;;;;;;;1.23;100.00;97086.38;5014975;28;20029;-78
2023/01/18 07:55:52;;;;;;;85.45;44.13;;;;;;;1.27;100.00;97091.34;5014898;28;20045;-78
2023/01/18 07:58:18;;;;;;;93.28;46.20;;;;;;;1.25;100.00;97079.41;5015033;28;20097;-78
2023/01/18 08:00:43;;;;;;;129.75;61.78;;;;;;;1.32;100.00;97095.34;5014825;28;20137;-78
2023/01/18 08:03:13;;;;;;;119.90;59.00;;;;;;;1.29;100.00;97090.34;5015089;28;20458;-78
2023/01/18 08:05:39;;;;;;;161.68;97.93;;;;;;;1.24;100.00;97080.34;5014741;28;20026;-78
2023/01/18 08:08:07;;;;;;;83.80;48.20;;;;;;;1.38;100.00;97102.72;5014872;28;20418;-78
2023/01/18 08:10:33;;;;;;;98.07;48.97;;;;;;;1.26;100.00;97080.25;5014292;28;20068;-78
2023/01/18 08:12:58;;;;;;;156.60;69.43;;;;;;;1.37;100.00;97092.53;5014701;28;20031;-78
2023/01/18 08:15:23;;;;;;;128.63;60.13;;;;;;;1.33;100.00;97084.16;5012381;28;20018;-78
2023/01/18 08:17:50;;;;;;;104.28;56.22;;;;;;;1.35;100.00;97084.94;5014766;28;20018;-78
2023/01/18 08:20:15;;;;;;;86.28;47.88;;;;;;;1.29;100.00;97085.22;5014725;28;20033;-78
2023/01/18 08:22:41;;;;;;;81.45;46.40;;;;;;;1.39;100.00;97113.78;5014415;28;20030;-78
2023/01/18 08:25:06;;;;;;;81.60;46.63;;;;;;;1.34;100.00;97108.91;5014617;28;20369;-78
2023/01/18 08:27:32;;;;;;;79.10;44.70;;;;;;;1.34;100.00;97121.72;5014301;28;20026;-78
2023/01/18 08:29:57;;;;;;;69.20;42.55;;;;;;;1.30;100.00;97120.22;5014607;28;20469;-78
2023/01/18 08:32:23;;;;;;;73.45;42.38;;;;;;;1.28;100.00;97127.16;5004675;28;20061;-78
2023/01/18 08:34:48;;;;;;;97.93;61.78;;;;;;;1.27;100.00;97125.53;5011245;28;20037;-78
2023/01/18 08:37:13;;;;;;;95.15;59.15;;;;;;;1.27;100.00;97133.22;5014094;28;20038;-78
2023/01/18 08:39:39;;;;;;;82.93;49.45;;;;;;;1.25;100.00;97128.13;5004196;28;20563;-78
2023/01/18 08:42:04;;;;;;;81.45;48.80;;;;;;;1.13;100.00;97110.78;4998774;28;20493;-78
2023/01/18 08:44:30;;;;;;;76.85;48.03;;;;;;;1.21;100.00;97120.69;4993879;28;20049;-78
2023/01/18 08:46:55;;;;;;;97.70;54.83;;;;;;;1.20;100.00;97127.53;4999763;28;20355;-78
2023/01/18 08:49:20;;;;;;;93.47;54.42;;;;;;;1.22;100.00;97128.31;5002529;28;20027;-78
2023/01/18 08:51:46;;;;;;;84.90;52.17;;;;;;;1.26;100.00;97139.22;4999490;28;20026;-78
2023/01/18 08:54:11;;;;;;;89.55;51.60;;;;;;;1.26;100.00;97141.78;5003151;28;20156;-78
2023/01/18 08:56:36;;;;;;;95.95;53.92;;;;;;;1.21;100.00;97138.63;5002842;28;20103;-78
2023/01/18 08:59:06;;;;;;;98.43;56.40;;;;;;;1.22;100.00;97145.41;4999800;28;20049;-78
2023/01/18 09:01:31;;;;;;;113.60;66.00;;;;;;;1.25;100.00;97142.69;5013407;28;20357;-78
2023/01/18 09:03:57;;;;;;;86.15;54.28;;;;;;;1.23;100.00;97136.84;5013498;28;20160;-78
2023/01/18 09:06:23;;;;;;;85.00;50.28;;;;;;;1.18;100.00;97126.81;5011844;28;20053;-78
2023/01/18 09:08:49;;;;;;;81.30;51.13;;;;;;;1.17;100.00;97130.25;5013305;28;20573;-78
2023/01/18 09:11:16;;;;;;;95.45;55.38;;;;;;;1.24;100.00;97131.63;5013529;28;20458;-78
2023/01/18 09:13:41;;;;;;;91.57;54.47;;;;;;;1.21;100.00;97120.69;5011606;28;20034;-78
2023/01/18 09:16:08;;;;;;;86.65;52.53;;;;;;;1.22;100.00;97122.31;5013553;28;20484;-78
2023/01/18 09:18:34;;;;;;;82.00;52.15;;;;;;;1.25;100.00;97127.31;5012884;28;20434;-78
2023/01/18 09:21:08;;;;;;;87.03;51.60;;;;;;;1.27;100.00;97132.38;5013407;28;20030;-78
2023/01/18 09:23:34;;;;;;;95.22;53.83;;;;;;;1.19;100.00;97133.59;5013097;28;20473;-78
2023/01/18 09:26:04;;;;;;;106.18;61.15;;;;;;;1.23;100.00;97150.47;5013125;28;20024;-78
2023/01/18 09:28:30;;;;;;;99.30;58.83;;;;;;;1.22;100.00;97153.09;5011503;28;20042;-78
2023/01/18 09:30:59;;;;;;;113.70;58.47;;;;;;;1.18;100.00;97152.44;5013442;28;20076;-78
2023/01/18 09:33:25;;;;;;;114.63;54.80;;;;;;;1.22;100.00;97155.66;5012773;28;20030;-78
2023/01/18 09:35:50;;;;;;;131.48;58.22;;;;;;;1.16;100.00;97158.53;5011571;28;20454;-78
2023/01/18 09:38:15;;;;;;;107.13;54.75;;;;;;;1.20;100.00;97163.44;5012898;28;20026;-78
2023/01/18 09:40:43;;;;;;;108.20;54.47;;;;;;;1.18;100.00;97155.00;5012587;28;20102;-78
2023/01/18 09:43:42;;;;;;;120.93;55.80;;;;;;;1.24;100.00;97164.94;5013199;28;20044;-78
2023/01/18 09:46:17;;;;;;;102.47;51.80;;;;;;;1.18;100.00;97143.91;5010528;28;20318;-78
2023/01/18 09:48:43;;;;;;;93.28;48.40;;;;;;;1.28;100.00;97159.69;5010241;28;20036;-78
2023/01/18 09:51:19;;;;;;;102.03;50.97;;;;;;;1.31;100.00;97156.97;5010346;28;20032;-78
2023/01/18 09:53:58;;;;;;;123.45;60.17;;;;;;;1.35;100.00;97163.56;5008585;28;20432;-78
2023/01/18 09:56:29;;;;;;;142.23;55.47;;;;;;;1.28;100.00;97155.38;5009957;28;20524;-78
2023/01/18 09:59:16;;;;;;;;;;;;;;;1.32;100.00;97162.00;5010823;28;20026;-78
2023/01/18 10:01:42;;;;;;;118.22;48.08;;;;;;;1.30;100.00;97165.53;5009907;28;19909;-78
2023/01/18 10:04:31;;;;;;;134.23;54.35;;;;;;;1.24;100.00;97153.88;5010445;28;20124;-78
2023/01/18 10:07:03;;;;;;;66.70;36.75;;;;;;;1.32;100.00;97162.00;4997778;28;20117;-78
2023/01/18 10:09:40;;;;;;;91.85;41.47;;;;;;;1.33;100.00;97155.16;5000670;28;20034;-78
2023/01/18 10:12:14;;;;;;;76.05;36.78;;;;;;;1.40;100.00;97161.63;5009888;28;20029;-78
2023/01/18 10:14:48;;;;;;;71.97;35.72;;;;;;;1.44;100.00;97155.44;5009764;28;20108;-78
2023/01/18 10:17:20;;;;;;;83.68;37.03;;;;;;;1.40;100.00;97157.34;5009490;28;20390;-78
2023/01/18 10:19:45;;;;;;;62.40;32.17;;;;;;;1.40;100.00;97148.81;5009228;28;20274;-78
2023/01/18 10:22:25;;;;;;;61.90;32.85;;;;;;;1.36;100.00;97144.75;5010316;28;20040;-78
2023/01/18 10:25:02;;;;;;;78.38;40.88;;;;;;;1.52;100.00;97160.19;5012253;28;20029;-78
2023/01/18 10:27:59;;;;;;;82.40;43.08;;;;;;;1.53;100.00;97157.56;5011714;28;20045;-78
2023/01/18 10:30:37;;;;;;;71.03;37.28;;;;;;;1.54;100.00;97150.69;5012285;28;20041;-78
2023/01/18 10:33:29;;;;;;;89.93;42.22;;;;;;;1.50;100.00;97150.00;5012147;28;20096;-78
2023/01/18 10:36:03;;;;;;;84.15;42.05;;;;;;;1.50;100.00;97140.56;5012530;28;20141;-78
2023/01/18 10:38:29;;;;;;;90.97;42.72;;;;;;;1.59;100.00;97154.66;5011629;28;20022;-79
2023/01/18 10:41:00;;;;;;;102.35;43.65;;;;;;;1.58;100.00;97154.75;4993369;28;20057;-79
2023/01/18 10:43:28;;;;;;;67.50;32.28;;;;;;;1.65;100.00;97163.81;4992367;28;20119;-78
2023/01/18 10:45:54;;;;;;;61.17;34.60;;;;;;;1.65;100.00;97166.38;4992660;28;20030;-78
2023/01/18 10:48:19;;;;;;;48.05;31.33;;;;;;;1.65;100.00;97172.34;4992686;28;20048;-79
2023/01/18 10:50:47;;;;;;;66.72;33.97;;;;;;;1.55;100.00;97160.84;4992647;28;20034;-79
2023/01/18 10:53:35;;;;;;;69.95;37.63;;;;;;;1.66;100.00;97175.72;4992449;28;20117;-79
2023/01/18 10:56:15;;;;;;;64.50;37.80;;;;;;;1.70;100.00;97178.06;4992460;28;20050;-78
2023/01/18 10:58:51;;;;;;;54.85;32.35;;;;;;;1.65;100.00;97187.72;4992222;28;20110;-79
2023/01/18 11:01:21;;;;;;;59.42;33.75;;;;;;;1.55;100.00;97173.69;4992196;28;20351;-79
2023/01/18 11:03:50;;;;;;;56.88;32.67;;;;;;;1.60;100.00;97192.25;4992209;28;20026;-78
2023/01/18 11:06:19;;;;;;;50.40;32.13;;;;;;;1.56;100.00;97188.19;4990949;28;20431;-78
2023/01/18 11:08:45;;;;;;;62.38;34.80;;;;;;;1.52;100.00;97173.00;4992435;28;20113;-78
2023/01/18 11:11:13;;;;;;;63.78;37.20;;;;;;;1.59;100.00;97184.63;4992558;28;20113;-78
2023/01/18 11:13:38;;;;;;;63.95;39.05;;;;;;;1.55;100.00;97194.19;4992096;28;20077;-78
2023/01/18 11:16:16;;;;;;;70.72;41.75;;;;;;;1.43;100.00;97175.16;4992177;28;20015;-78
2023/01/18 11:18:55;;;;;;;82.53;45.92;;;;;;;1.40;100.00;97193.25;4990838;28;20478;-78
2023/01/18 11:21:21;;;;;;;81.65;47.10;;;;;;;1.42;100.00;97185.47;4992463;28;20030;-78
2023/01/18 11:23:48;;;;;;;88.55;46.08;;;;;;;1.45;100.00;97193.84;4992060;28;20027;-78
2023/01/18 11:26:16;;;;;;;76.93;42.97;;;;;;;1.44;100.00;97199.88;4992248;28;20058;-78
2023/01/18 11:29:01;;;;;;;79.03;44.67;;;;;;;1.43;100.00;97187.13;4991912;28;20125;-79
2023/01/18 11:31:44;;;;;;;64.38;41.25;;;;;;;1.44;100.00;97188.78;4992065;28;20046;-78
2023/01/18 11:34:38;;;;;;;61.95;40.55;;;;;;;1.35;100.00;97171.28;4992250;28;20550;-78
2023/01/18 11:37:23;;;;;;;66.38;40.75;;;;;;;1.44;100.00;97191.38;4992128;28;20018;-78
2023/01/18 11:39:48;;;;;;;58.10;38.95;;;;;;;1.47;100.00;97199.72;4990415;28;20382;-78
2023/01/18 11:42:23;;;;;;;60.17;38.72;;;;;;;1.45;100.00;97203.28;4991970;28;20026;-78
2023/01/18 11:45:16;;;;;;;63.60;38.35;;;;;;;1.38;100.00;97200.16;4991880;28;20037;-78
2023/01/18 11:48:04;;;;;;;79.85;43.33;;;;;;;1.34;100.00;97195.25;4991779;28;20106;-78
2023/01/18 11:50:37;;;;;;;103.78;59.30;;;;;;;1.48;100.00;97218.53;4992151;28;20034;-78
2023/01/18 11:53:14;;;;;;;155.82;76.25;;;;;;;1.43;100.00;97211.06;5003422;28;20402;-78
2023/01/18 11:56:04;;;;;;;276.55;122.80;;;;;;;1.47;100.00;97220.22;5011622;28;20030;-78
2023/01/18 11:58:30;;;;;;;113.38;53.97;;;;;;;1.44;100.00;97217.00;5015293;28;20373;-78
2023/01/18 12:01:20;;;;;;;108.78;51.92;;;;;;;1.44;100.00;97228.09;5014830;28;20034;-78
2023/01/18 12:04:16;;;;;;;89.80;48.20;;;;;;;1.43;100.00;97228.16;5010974;28;20022;-78